Time;durP1;ratioP1;P1;durP2;ratioP2;P2;SDS_P1;SDS_P2;PMS_P1;PMS_P2;Temp;Humidity;BMP_temperature;BMP_pressure;BME280_temperature;BME280_humidity;BME280_pressure;Samples;Min_cycle;Max_cycle;Signal;HPM_P1;HPM_P2
2022/06/11 00:01:46;;;;;;;17.97;2.70;;;19.90;99.90;;;;;;5052539;28;20187;-73
2022/06/11 00:04:25;;;;;;;10.30;2.30;;;19.90;99.90;;;;;;5060812;28;20606;-73
2022/06/11 00:06:58;;;;;;;8.93;2.40;;;19.80;99.90;;;;;;5053413;28;20211;-73
2022/06/11 00:09:26;;;;;;;15.67;2.73;;;19.70;99.90;;;;;;5049054;28;20257;-73
2022/06/11 00:11:53;;;;;;;12.43;3.10;;;19.70;99.90;;;;;;5055956;28;20623;-74
2022/06/11 00:14:28;;;;;;;8.57;2.20;;;19.70;99.90;;;;;;5056118;28;20182;-73
2022/06/11 00:16:59;;;;;;;13.53;3.00;;;19.60;99.90;;;;;;5056408;28;20225;-75
2022/06/11 00:19:28;;;;;;;16.33;2.87;;;19.60;99.90;;;;;;5052341;28;20187;-73
2022/06/11 00:21:56;;;;;;;10.17;2.80;;;19.60;99.90;;;;;;5068992;28;20575;-74
2022/06/11 00:24:25;;;;;;;14.33;2.90;;;19.60;99.90;;;;;;5052576;28;20187;-73
2022/06/11 00:26:55;;;;;;;8.47;2.70;;;19.60;99.90;;;;;;5084809;28;20297;-75
2022/06/11 00:29:25;;;;;;;12.53;2.67;;;19.60;99.90;;;;;;5073080;28;20186;-73
2022/06/11 00:31:52;;;;;;;6.57;2.37;;;19.60;99.90;;;;;;5072246;28;20186;-74
2022/06/11 00:34:20;;;;;;;15.07;2.47;;;19.60;99.90;;;;;;5054459;28;20273;-73
2022/06/11 00:36:48;;;;;;;11.57;2.60;;;19.60;99.90;;;;;;5070042;28;20198;-74
2022/06/11 00:39:20;;;;;;;10.97;2.93;;;19.60;99.90;;;;;;5057826;28;20269;-72
2022/06/11 00:41:54;;;;;;;10.73;2.63;;;19.60;99.90;;;;;;5084474;28;20191;-73
2022/06/11 00:44:21;;;;;;;13.53;2.30;;;19.60;99.90;;;;;;5067936;28;20201;-75
2022/06/11 00:46:58;;;;;;;15.70;2.60;;;19.60;99.90;;;;;;5072253;28;20217;-72
2022/06/11 00:49:52;;;;;;;15.83;2.80;;;19.60;99.90;;;;;;5055117;28;20189;-74
2022/06/11 00:52:35;;;;;;;14.10;2.60;;;19.60;99.90;;;;;;5067190;28;20727;-73
2022/06/11 00:55:20;;;;;;;11.33;2.63;;;19.70;99.90;;;;;;5052415;28;20201;-74
2022/06/11 00:58:02;;;;;;;14.03;2.60;;;19.60;99.90;;;;;;5063571;28;20268;-73
2022/06/11 01:00:48;;;;;;;12.40;2.70;;;19.70;99.90;;;;;;5100996;28;20241;-72
2022/06/11 01:03:26;;;;;;;12.83;2.63;;;19.70;99.90;;;;;;5052909;28;20658;-75
2022/06/11 01:06:09;;;;;;;10.57;2.77;;;19.80;99.90;;;;;;5054863;28;20186;-73
2022/06/11 01:08:58;;;;;;;10.67;2.57;;;19.80;99.90;;;;;;5069436;28;20182;-73
2022/06/11 01:11:56;;;;;;;11.23;2.63;;;19.80;99.90;;;;;;5060979;28;20186;-74
2022/06/11 01:14:36;;;;;;;10.80;2.73;;;19.90;99.90;;;;;;5091182;28;20192;-74
2022/06/11 01:17:35;;;;;;;8.27;2.37;;;19.90;99.90;;;;;;5055932;28;20600;-74
2022/06/11 01:20:30;;;;;;;8.60;2.50;;;20.00;99.90;;;;;;5088869;28;20246;-75
2022/06/11 01:23:48;;;;;;;14.33;2.53;;;20.00;99.90;;;;;;5088069;28;20197;-75
2022/06/11 01:27:06;;;;;;;11.83;2.43;;;20.00;99.90;;;;;;5090213;28;20359;-75
2022/06/11 01:30:02;;;;;;;10.83;2.73;;;20.00;99.70;;;;;;5064836;28;20603;-72
2022/06/11 01:33:17;;;;;;;11.80;2.43;;;20.00;99.30;;;;;;5069110;28;20201;-73
2022/06/11 01:36:11;;;;;;;16.27;2.13;;;20.10;98.90;;;;;;5050638;28;20313;-75
2022/06/11 01:39:21;;;;;;;9.87;2.33;;;20.00;98.60;;;;;;5071227;28;20240;-72
2022/06/11 01:42:13;;;;;;;6.63;1.87;;;20.10;98.10;;;;;;4986131;28;20295;-73
2022/06/11 01:44:44;;;;;;;13.27;2.23;;;20.10;98.00;;;;;;5026952;28;20206;-72
2022/06/11 01:47:14;;;;;;;8.87;2.10;;;20.10;97.40;;;;;;5071161;28;20202;-74
2022/06/11 01:49:47;;;;;;;6.73;2.20;;;20.10;97.20;;;;;;5070739;28;20288;-74
2022/06/11 01:52:31;;;;;;;11.33;2.10;;;20.10;97.00;;;;;;5086530;28;20182;-75
2022/06/11 01:55:40;;;;;;;9.60;2.00;;;20.10;96.70;;;;;;5082646;28;20182;-73
2022/06/11 01:58:21;;;;;;;5.77;1.83;;;20.20;96.80;;;;;;5060943;28;20241;-72
2022/06/11 02:01:46;;;;;;;9.23;2.30;;;20.20;96.80;;;;;;5069866;28;20200;-73
2022/06/11 02:04:26;;;;;;;6.73;1.87;;;20.20;96.70;;;;;;5058287;28;20252;-74
2022/06/11 02:07:08;;;;;;;9.53;1.90;;;20.30;96.70;;;;;;5068767;28;20209;-73
2022/06/11 02:10:00;;;;;;;6.80;2.20;;;20.30;96.80;;;;;;5099880;28;20212;-73
2022/06/11 02:12:56;;;;;;;9.13;2.23;;;20.30;96.60;;;;;;5068681;28;20209;-73
2022/06/11 02:15:53;;;;;;;12.33;2.20;;;20.30;97.20;;;;;;5083506;28;20186;-72
2022/06/11 02:18:25;;;;;;;7.40;2.37;;;20.40;97.00;;;;;;5065492;28;20186;-74
2022/06/11 02:21:09;;;;;;;8.10;2.17;;;20.30;97.40;;;;;;5081543;28;20187;-73
2022/06/11 02:23:53;;;;;;;6.23;1.80;;;20.30;97.90;;;;;;5049483;28;20193;-73
2022/06/11 02:26:37;;;;;;;4.60;1.90;;;20.30;97.60;;;;;;5063364;28;21024;-73
2022/06/11 02:29:06;;;;;;;10.03;2.20;;;20.20;97.50;;;;;;5083072;28;20181;-73
2022/06/11 02:31:53;;;;;;;11.53;2.17;;;20.30;96.70;;;;;;5069901;28;20571;-74
2022/06/11 02:34:24;;;;;;;9.43;1.90;;;20.40;96.70;;;;;;5064467;28;20307;-72
2022/06/11 02:37:08;;;;;;;6.73;2.17;;;20.40;97.00;;;;;;5068843;28;20196;-74
2022/06/11 02:39:39;;;;;;;6.57;1.83;;;20.40;97.30;;;;;;5079357;28;20187;-74
2022/06/11 02:42:09;;;;;;;7.97;2.00;;;20.50;97.40;;;;;;5067346;28;20190;-75
2022/06/11 02:44:36;;;;;;;6.63;1.80;;;20.40;97.50;;;;;;5082597;28;20266;-72
2022/06/11 02:47:04;;;;;;;5.60;1.87;;;20.50;97.40;;;;;;5070166;28;20202;-73
2022/06/11 02:49:36;;;;;;;7.87;1.70;;;20.50;97.50;;;;;;5071149;28;20186;-74
2022/06/11 02:52:21;;;;;;;4.83;1.67;;;20.50;97.30;;;;;;5087227;28;20189;-75
2022/06/11 02:54:52;;;;;;;6.27;2.00;;;20.50;97.30;;;;;;5066816;28;20229;-75
2022/06/11 02:57:27;;;;;;;9.33;1.90;;;20.60;97.90;;;;;;5070668;28;20193;-75
2022/06/11 02:59:57;;;;;;;7.07;1.90;;;20.60;97.10;;;;;;5089839;28;20958;-73
2022/06/11 03:02:25;;;;;;;9.37;2.23;;;20.60;97.60;;;;;;5056411;28;20196;-73
2022/06/11 03:04:53;;;;;;;4.90;1.90;;;20.60;97.80;;;;;;5088710;28;20191;-73
2022/06/11 03:07:19;;;;;;;8.43;1.80;;;20.60;98.40;;;;;;5072529;28;20206;-75
2022/06/11 03:09:46;;;;;;;6.80;1.80;;;20.60;97.90;;;;;;5054610;28;20322;-75
2022/06/11 03:12:15;;;;;;;8.60;1.90;;;20.60;97.10;;;;;;5072924;28;20233;-74
2022/06/11 03:14:44;;;;;;;9.27;2.10;;;20.80;97.40;;;;;;5092334;28;20239;-75
2022/06/11 03:17:16;;;;;;;7.07;2.10;;;20.70;97.50;;;;;;5069036;28;20772;-75
2022/06/11 03:19:43;;;;;;;4.50;1.93;;;20.70;97.50;;;;;;5054260;28;20204;-74
2022/06/11 03:22:09;;;;;;;6.03;2.00;;;20.70;97.80;;;;;;5069978;28;20194;-73
2022/06/11 03:24:36;;;;;;;5.30;2.03;;;20.70;98.30;;;;;;5073504;28;20687;-73
2022/06/11 03:27:05;;;;;;;5.30;2.20;;;20.70;98.40;;;;;;5057415;28;20209;-74
2022/06/11 03:29:31;;;;;;;5.83;2.20;;;20.70;99.20;;;;;;5070126;28;20701;-73
2022/06/11 03:31:57;;;;;;;5.80;1.90;;;20.60;99.40;;;;;;5083882;28;20191;-74
2022/06/11 03:34:24;;;;;;;8.83;1.97;;;20.50;99.70;;;;;;5077086;28;20190;-74
2022/06/11 03:36:52;;;;;;;5.90;2.10;;;20.50;99.90;;;;;;5057291;28;20179;-74
2022/06/11 03:39:19;;;;;;;7.00;1.93;;;20.50;99.90;;;;;;5073384;28;20229;-72
2022/06/11 03:41:47;;;;;;;7.80;2.10;;;20.40;99.90;;;;;;5090157;28;20182;-73
2022/06/11 03:44:13;;;;;;;11.90;2.30;;;20.40;99.90;;;;;;5090483;28;20190;-73
2022/06/11 03:46:40;;;;;;;8.40;2.50;;;20.50;99.20;;;;;;5088682;28;20210;-73
2022/06/11 03:49:09;;;;;;;11.97;2.00;;;20.60;99.60;;;;;;5092502;28;20182;-75
2022/06/11 03:51:35;;;;;;;8.57;2.30;;;20.80;99.80;;;;;;5091060;28;20257;-73
2022/06/11 03:54:03;;;;;;;11.17;2.30;;;20.80;99.50;;;;;;5056535;28;20217;-73
2022/06/11 03:56:30;;;;;;;7.63;2.10;;;20.90;99.30;;;;;;5071938;28;20182;-73
2022/06/11 03:58:56;;;;;;;10.57;2.43;;;21.00;99.50;;;;;;5091227;28;20221;-74
2022/06/11 04:01:23;;;;;;;6.93;2.20;;;21.10;99.00;;;;;;5064261;28;20206;-74
2022/06/11 04:04:01;;;;;;;9.17;2.17;;;21.20;98.90;;;;;;5071679;28;20182;-75
2022/06/11 04:06:48;;;;;;;11.03;2.10;;;21.20;99.60;;;;;;5079473;28;20709;-72
2022/06/11 04:09:27;;;;;;;10.90;2.30;;;21.20;99.90;;;;;;5086907;28;20178;-73
2022/06/11 04:11:54;;;;;;;9.70;2.40;;;21.30;99.90;;;;;;5048481;28;20181;-74
2022/06/11 04:14:21;;;;;;;6.60;2.20;;;21.30;99.90;;;;;;5088654;28;20193;-73
2022/06/11 04:16:53;;;;;;;5.40;1.93;;;21.30;99.90;;;;;;5072443;28;20270;-73
2022/06/11 04:19:34;;;;;;;6.10;1.90;;;21.30;99.90;;;;;;5071768;28;20193;-74
2022/06/11 04:22:01;;;;;;;7.03;2.00;;;21.30;99.90;;;;;;5072235;28;20201;-73
2022/06/11 04:24:29;;;;;;;7.87;2.27;;;21.30;99.90;;;;;;5048857;28;20194;-75
2022/06/11 04:27:00;;;;;;;9.80;2.27;;;21.30;99.90;;;;;;5072391;28;20206;-75
2022/06/11 04:29:35;;;;;;;8.00;2.10;;;21.30;99.90;;;;;;5053120;28;20202;-74
2022/06/11 04:32:05;;;;;;;4.43;2.20;;;21.30;99.90;;;;;;5078891;28;20190;-76
2022/06/11 04:34:34;;;;;;;6.20;1.80;;;21.30;99.90;;;;;;5073881;28;20217;-73
2022/06/11 04:37:01;;;;;;;9.23;2.23;;;21.30;99.90;;;;;;5089945;28;20221;-74
2022/06/11 04:39:32;;;;;;;7.80;2.40;;;21.40;99.90;;;;;;5079085;28;20197;-74
2022/06/11 04:41:59;;;;;;;7.13;1.93;;;21.30;99.90;;;;;;5086476;28;20198;-73
2022/06/11 04:44:27;;;;;;;7.67;2.00;;;21.40;99.90;;;;;;5051996;28;20547;-74
2022/06/11 04:46:53;;;;;;;8.33;2.30;;;21.40;99.90;;;;;;5071240;28;20301;-73
2022/06/11 04:49:23;;;;;;;9.77;2.30;;;21.40;99.90;;;;;;5077535;28;20638;-73
2022/06/11 04:51:50;;;;;;;8.23;1.90;;;21.50;99.90;;;;;;5070664;28;20186;-73
2022/06/11 04:54:17;;;;;;;3.73;1.97;;;21.50;99.90;;;;;;5071140;28;20188;-72
2022/06/11 04:56:44;;;;;;;5.50;2.00;;;21.50;99.90;;;;;;5049746;28;20247;-73
2022/06/11 04:59:14;;;;;;;6.87;2.50;;;21.60;99.90;;;;;;5068677;28;20223;-72
2022/06/11 05:01:43;;;;;;;7.37;2.10;;;21.60;99.90;;;;;;5065985;28;20185;-72
2022/06/11 05:04:12;;;;;;;9.33;2.73;;;21.70;99.90;;;;;;5072009;28;20186;-74
2022/06/11 05:06:44;;;;;;;10.13;2.17;;;21.70;99.90;;;;;;5071354;28;20220;-74
2022/06/11 05:09:15;;;;;;;6.80;2.10;;;21.80;99.90;;;;;;5071663;28;20182;-74
2022/06/11 05:11:42;;;;;;;6.37;2.20;;;22.00;99.90;;;;;;5071172;28;20186;-74
2022/06/11 05:14:09;;;;;;;10.87;2.90;;;22.10;99.90;;;;;;5078909;28;20213;-72
2022/06/11 05:16:37;;;;;;;7.35;2.05;;;22.10;99.90;;;;;;5090419;28;20186;-72
2022/06/11 05:19:04;;;;;;;6.05;1.98;;;22.20;99.90;;;;;;5088471;28;20200;-73
2022/06/11 05:21:31;;;;;;;11.13;2.13;;;22.40;99.90;;;;;;5053130;28;20622;-73
2022/06/11 05:23:57;;;;;;;5.03;1.90;;;22.50;99.90;;;;;;5050485;28;20293;-74
2022/06/11 05:26:38;;;;;;;5.40;1.60;;;22.60;99.90;;;;;;5081748;28;20622;-72
2022/06/11 05:29:06;;;;;;;9.17;2.10;;;22.70;99.90;;;;;;5071165;28;20220;-74
2022/06/11 05:31:33;;;;;;;6.90;2.10;;;22.70;99.90;;;;;;5071124;28;20186;-73
2022/06/11 05:34:00;;;;;;;5.32;2.05;;;22.80;99.90;;;;;;5071295;28;20193;-73
2022/06/11 05:36:26;;;;;;;7.10;2.00;;;22.80;99.90;;;;;;5051988;28;20202;-74
2022/06/11 05:38:53;;;;;;;8.47;2.40;;;22.80;99.90;;;;;;5070401;28;20622;-74
2022/06/11 05:41:20;;;;;;;6.90;2.10;;;22.80;99.90;;;;;;5103788;28;20551;-74
2022/06/11 05:43:46;;;;;;;5.60;2.35;;;22.80;99.90;;;;;;5054381;28;20194;-75
2022/06/11 05:46:21;;;;;;;5.33;2.13;;;22.80;99.90;;;;;;5061490;28;20310;-73
2022/06/11 05:49:00;;;;;;;7.13;2.37;;;22.90;99.90;;;;;;5055674;28;20197;-74
2022/06/11 05:51:39;;;;;;;6.82;2.13;;;22.90;99.90;;;;;;5084007;28;20222;-72
2022/06/11 05:54:10;;;;;;;7.97;2.40;;;23.00;99.90;;;;;;5050705;28;20287;-72
2022/06/11 05:56:38;;;;;;;9.13;2.15;;;23.00;99.90;;;;;;5045674;28;20175;-71
2022/06/11 05:59:13;;;;;;;8.18;2.33;;;23.10;99.90;;;;;;5053127;28;20192;-73
2022/06/11 06:01:43;;;;;;;9.23;2.50;;;23.40;99.90;;;;;;5054054;28;20264;-74
2022/06/11 06:04:09;;;;;;;10.38;2.22;;;23.60;99.90;;;;;;5064186;28;20209;-73
2022/06/11 06:06:36;;;;;;;10.40;2.38;;;23.70;99.90;;;;;;5089305;28;20212;-72
2022/06/11 06:09:05;;;;;;;6.82;2.40;;;23.90;99.90;;;;;;5086779;28;20236;-74
2022/06/11 06:11:31;;;;;;;7.20;2.25;;;24.00;99.90;;;;;;5088958;28;20242;-74
2022/06/11 06:13:58;;;;;;;6.18;2.30;;;24.00;99.90;;;;;;5053662;28;20204;-73
2022/06/11 06:16:29;;;;;;;9.67;2.40;;;24.00;99.90;;;;;;5054301;28;20190;-73
2022/06/11 06:18:59;;;;;;;6.38;2.28;;;24.10;99.90;;;;;;5049485;28;20199;-73
2022/06/11 06:21:29;;;;;;;6.18;2.33;;;24.10;99.90;;;;;;5061346;28;20201;-73
2022/06/11 06:23:56;;;;;;;6.90;2.42;;;24.20;99.90;;;;;;5101059;28;20208;-73
2022/06/11 06:26:23;;;;;;;7.38;2.35;;;24.20;99.90;;;;;;5075132;28;20691;-74
2022/06/11 06:28:50;;;;;;;7.15;2.53;;;24.30;99.90;;;;;;5053785;28;20181;-74
2022/06/11 06:31:18;;;;;;;10.80;2.45;;;24.50;99.90;;;;;;5086644;28;20182;-73
2022/06/11 06:33:45;;;;;;;8.45;2.38;;;24.50;99.90;;;;;;5087146;28;20186;-71
2022/06/11 06:36:14;;;;;;;7.05;2.55;;;24.50;99.90;;;;;;5067891;28;20298;-74
2022/06/11 06:38:42;;;;;;;13.80;3.00;;;24.60;99.90;;;;;;5053417;28;20243;-73
2022/06/11 06:41:09;;;;;;;12.40;2.95;;;24.70;99.90;;;;;;5053146;28;20277;-72
2022/06/11 06:43:36;;;;;;;15.38;2.95;;;24.70;99.90;;;;;;5069861;28;20179;-73
2022/06/11 06:46:04;;;;;;;9.45;2.60;;;24.70;99.90;;;;;;5058001;28;20186;-72
2022/06/11 06:48:30;;;;;;;16.10;3.38;;;24.80;99.90;;;;;;5083464;28;20194;-72
2022/06/11 06:50:58;;;;;;;12.68;3.25;;;24.80;99.90;;;;;;5069148;28;20182;-73
2022/06/11 06:53:25;;;;;;;8.27;3.30;;;24.80;99.90;;;;;;5069434;28;20204;-73
2022/06/11 06:55:52;;;;;;;19.35;3.38;;;24.90;99.90;;;;;;5086778;28;20170;-74
2022/06/11 06:58:19;;;;;;;10.35;3.33;;;24.90;99.90;;;;;;5066837;28;20201;-73
2022/06/11 07:00:46;;;;;;;19.10;3.70;;;24.90;99.90;;;;;;5057568;28;20196;-75
2022/06/11 07:03:14;;;;;;;18.00;3.60;;;25.00;99.90;;;;;;5052605;28;20178;-74
2022/06/11 07:05:42;;;;;;;14.75;3.90;;;25.00;99.90;;;;;;5070062;28;20178;-75
2022/06/11 07:08:09;;;;;;;16.38;3.45;;;25.10;99.90;;;;;;5067727;28;20209;-74
2022/06/11 07:10:36;;;;;;;15.35;3.22;;;25.10;99.90;;;;;;5084122;28;20186;-72
2022/06/11 07:13:05;;;;;;;17.13;3.53;;;25.10;99.90;;;;;;5086505;28;20217;-73
2022/06/11 07:15:32;;;;;;;7.07;2.60;;;25.10;99.90;;;;;;5065313;28;20647;-71
2022/06/11 07:18:14;;;;;;;13.60;3.15;;;25.10;99.90;;;;;;5083282;28;20732;-72
2022/06/11 07:20:43;;;;;;;8.88;2.90;;;25.20;99.90;;;;;;5066948;28;20217;-72
2022/06/11 07:23:25;;;;;;;10.82;2.90;;;25.20;99.90;;;;;;5067364;28;20193;-73
2022/06/11 07:25:56;;;;;;;12.00;3.03;;;25.30;99.90;;;;;;5062447;28;20186;-72
2022/06/11 07:28:33;;;;;;;10.80;2.90;;;25.40;99.90;;;;;;5065225;28;20245;-72
2022/06/11 07:31:01;;;;;;;9.68;2.80;;;25.40;99.90;;;;;;5069003;28;20315;-73
2022/06/11 07:33:28;;;;;;;6.47;2.15;;;25.50;99.90;;;;;;5080499;28;20814;-72
2022/06/11 07:35:56;;;;;;;11.68;2.70;;;25.60;99.90;;;;;;5071592;28;20308;-72
2022/06/11 07:38:24;;;;;;;11.77;2.83;;;25.70;99.90;;;;;;5085160;28;20198;-72
2022/06/11 07:40:54;;;;;;;10.43;2.83;;;25.70;99.90;;;;;;5081816;28;20255;-72
2022/06/11 07:43:21;;;;;;;12.25;2.80;;;25.80;99.90;;;;;;5065260;28;20214;-72
2022/06/11 07:45:48;;;;;;;10.18;2.85;;;25.90;99.90;;;;;;5085793;28;20190;-72
2022/06/11 07:48:18;;;;;;;11.35;2.83;;;26.00;99.90;;;;;;5057500;28;20211;-73
2022/06/11 07:50:50;;;;;;;8.38;2.60;;;25.90;99.90;;;;;;5068098;28;20191;-73
2022/06/11 07:53:20;;;;;;;6.43;2.88;;;26.10;99.90;;;;;;5053237;28;20189;-72
2022/06/11 07:55:50;;;;;;;16.27;3.45;;;26.10;99.90;;;;;;5056084;28;20201;-73
2022/06/11 07:58:20;;;;;;;11.25;2.78;;;26.20;99.90;;;;;;5067323;28;20278;-72
2022/06/11 08:00:52;;;;;;;12.63;2.92;;;26.30;99.90;;;;;;5061251;28;20190;-72
2022/06/11 08:03:21;;;;;;;11.35;2.80;;;26.40;99.90;;;;;;5070917;28;20193;-73
2022/06/11 08:05:48;;;;;;;10.95;2.90;;;26.50;99.90;;;;;;5090988;28;20591;-72
2022/06/11 08:08:17;;;;;;;14.45;3.13;;;26.60;99.90;;;;;;5070940;28;20970;-72
2022/06/11 08:10:44;;;;;;;10.93;3.10;;;26.60;99.90;;;;;;5053976;28;20193;-73
2022/06/11 08:13:12;;;;;;;7.47;2.45;;;26.60;99.90;;;;;;5055908;28;20215;-73
2022/06/11 08:15:42;;;;;;;9.23;2.70;;;26.70;99.90;;;;;;5071647;28;20194;-72
2022/06/11 08:18:12;;;;;;;7.28;3.00;;;26.80;99.90;;;;;;5080568;28;20226;-73
2022/06/11 08:20:41;;;;;;;8.35;2.65;;;26.90;99.90;;;;;;5072482;28;20206;-74
2022/06/11 08:23:09;;;;;;;8.20;2.95;;;26.90;99.90;;;;;;5077716;28;20193;-72
2022/06/11 08:25:36;;;;;;;15.25;2.95;;;27.00;99.90;;;;;;5074895;28;20676;-72
2022/06/11 08:28:05;;;;;;;12.68;2.97;;;27.10;99.90;;;;;;5087671;28;20210;-73
2022/06/11 08:30:34;;;;;;;7.40;2.80;;;27.20;99.90;;;;;;5071113;28;20182;-73
2022/06/11 08:33:01;;;;;;;15.25;2.80;;;27.30;99.90;;;;;;5061130;28;20185;-72
2022/06/11 08:35:31;;;;;;;10.43;2.53;;;27.40;99.90;;;;;;5099623;28;20221;-73
2022/06/11 08:38:01;;;;;;;10.10;2.88;;;27.40;99.90;;;;;;5070185;28;20244;-73
2022/06/11 08:40:46;;;;;;;11.57;3.35;;;27.50;99.90;;;;;;5075638;28;20277;-73
2022/06/11 08:43:41;;;;;;;15.38;3.05;;;27.70;99.90;;;;;;5047956;28;20182;-74
2022/06/11 08:46:16;;;;;;;9.50;2.90;;;27.80;99.90;;;;;;5071823;28;20178;-73
2022/06/11 08:48:50;;;;;;;9.25;3.08;;;27.80;99.90;;;;;;5044646;28;23160;-73
2022/06/11 08:51:41;;;;;;;11.50;2.50;;;27.80;99.90;;;;;;5085332;28;20228;-73
2022/06/11 08:54:17;;;;;;;7.75;2.60;;;27.90;99.90;;;;;;5081229;28;20584;-72
2022/06/11 08:57:13;;;;;;;9.23;2.92;;;28.00;99.90;;;;;;5048541;28;20196;-73
2022/06/11 09:00:02;;;;;;;9.93;2.80;;;28.10;99.90;;;;;;5083024;28;20196;-73
2022/06/11 09:03:09;;;;;;;7.78;2.55;;;28.10;99.90;;;;;;5065730;28;20739;-72
2022/06/11 09:06:21;;;;;;;8.68;2.63;;;28.20;99.90;;;;;;5068294;28;20190;-74
2022/06/11 09:09:27;;;;;;;13.70;2.70;;;28.30;99.90;;;;;;5086599;28;20187;-73
2022/06/11 09:12:33;;;;;;;7.95;2.70;;;28.40;99.90;;;;;;5095694;27;20193;-74
2022/06/11 09:15:32;;;;;;;10.52;2.63;;;28.50;99.90;;;;;;5054367;28;20186;-73
2022/06/11 09:18:48;;;;;;;16.50;2.60;;;28.50;99.90;;;;;;5051703;28;20183;-73
2022/06/11 09:21:55;;;;;;;12.45;2.67;;;28.60;99.90;;;;;;5072114;28;20194;-74
2022/06/11 09:25:00;;;;;;;8.70;2.80;;;28.70;99.90;;;;;;5066055;28;20190;-72
2022/06/11 09:27:54;;;;;;;10.98;2.63;;;28.80;99.90;;;;;;5080606;28;20252;-74
2022/06/11 09:30:46;;;;;;;11.60;2.42;;;29.00;99.90;;;;;;5070059;28;20251;-73
2022/06/11 09:33:30;;;;;;;10.60;2.55;;;29.10;99.90;;;;;;5069035;28;20181;-74
2022/06/11 09:36:05;;;;;;;11.65;3.00;;;29.20;99.90;;;;;;5085529;28;20496;-73
2022/06/11 09:38:59;;;;;;;10.77;2.60;;;29.30;99.90;;;;;;5077197;28;20189;-75
2022/06/11 09:42:29;;;;;;;13.15;3.35;;;29.40;99.90;;;;;;5088876;28;20233;-74
2022/06/11 09:45:10;;;;;;;6.28;2.80;;;29.60;99.90;;;;;;5069304;28;20185;-74
2022/06/11 09:48:25;;;;;;;8.98;2.90;;;29.60;99.90;;;;;;5072935;28;20217;-73
2022/06/11 09:51:02;;;;;;;7.88;2.83;;;29.60;99.90;;;;;;5086958;28;20185;-73
2022/06/11 09:53:53;;;;;;;9.63;2.58;;;29.70;99.90;;;;;;5053140;28;20590;-74
2022/06/11 09:56:38;;;;;;;7.32;2.50;;;29.90;99.90;;;;;;5069751;28;20312;-72
2022/06/11 09:59:33;;;;;;;9.07;2.80;;;29.90;99.90;;;;;;5051158;28;20187;-70
2022/06/11 10:02:06;;;;;;;6.38;2.50;;;30.00;99.90;;;;;;5051983;28;20285;-73
2022/06/11 10:04:43;;;;;;;5.72;2.20;;;30.10;99.90;;;;;;5092465;28;20995;-73
2022/06/11 10:07:23;;;;;;;6.80;2.80;;;30.20;99.90;;;;;;5050350;28;20567;-72
2022/06/11 10:10:24;;;;;;;9.15;2.70;;;30.20;99.90;;;;;;5068397;28;20184;-73
2022/06/11 10:13:06;;;;;;;8.80;2.58;;;30.00;99.90;;;;;;5064983;28;20205;-74
2022/06/11 10:15:39;;;;;;;9.32;2.58;;;30.00;99.90;;;;;;5077301;28;20189;-74
2022/06/11 10:18:32;;;;;;;7.95;2.50;;;29.90;99.90;;;;;;5070762;28;20186;-73
2022/06/11 10:21:15;;;;;;;9.02;2.92;;;29.90;99.90;;;;;;5062456;28;20215;-71
2022/06/11 10:23:48;;;;;;;6.50;2.30;;;30.10;99.90;;;;;;5065478;28;20193;-72
2022/06/11 10:26:30;;;;;;;13.18;2.90;;;30.10;99.90;;;;;;5068847;28;20217;-71
2022/06/11 10:29:23;;;;;;;11.68;2.40;;;30.10;99.90;;;;;;5075670;28;20265;-71
2022/06/11 10:32:07;;;;;;;10.10;2.53;;;30.00;99.90;;;;;;5079590;28;20616;-71
2022/06/11 10:34:41;;;;;;;8.38;2.20;;;30.00;99.90;;;;;;5089094;28;20196;-70
2022/06/11 10:37:29;;;;;;;11.93;2.70;;;30.00;99.90;;;;;;5065872;28;20190;-72
2022/06/11 10:40:30;;;;;;;9.13;2.50;;;29.90;99.90;;;;;;5057673;28;20200;-73
2022/06/11 10:43:18;;;;;;;10.15;2.75;;;29.80;99.90;;;;;;5062640;28;20226;-70
2022/06/11 10:45:48;;;;;;;6.25;2.28;;;29.90;99.90;;;;;;5081214;28;20927;-71
2022/06/11 10:48:31;;;;;;;5.82;2.50;;;30.00;99.90;;;;;;5087388;28;20218;-72
2022/06/11 10:51:00;;;;;;;7.60;2.95;;;30.00;99.90;;;;;;5069995;28;20190;-72
2022/06/11 10:54:11;;;;;;;7.35;2.60;;;30.00;99.90;;;;;;5070333;28;20656;-69
2022/06/11 10:56:50;;;;;;;10.57;2.47;;;30.10;99.90;;;;;;5065297;28;20293;-70
2022/06/11 10:59:42;;;;;;;6.57;2.63;;;30.00;99.90;;;;;;5081710;28;20268;-71
2022/06/11 11:02:58;;;;;;;7.60;2.67;;;29.80;99.90;;;;;;5042021;28;20611;-71
2022/06/11 11:05:24;;;;;;;9.60;2.50;;;29.80;99.90;;;;;;5060823;28;20202;-71
2022/06/11 11:08:02;;;;;;;12.30;2.78;;;29.90;99.90;;;;;;5083443;28;20288;-72
2022/06/11 11:10:35;;;;;;;10.23;2.42;;;29.80;99.90;;;;;;5088476;28;20602;-71
2022/06/11 11:13:39;;;;;;;5.82;2.70;;;29.70;99.90;;;;;;5084711;28;20210;-71
2022/06/11 11:16:21;;;;;;;5.35;2.58;;;29.60;99.90;;;;;;5062900;28;20190;-70
2022/06/11 11:19:15;;;;;;;12.15;2.60;;;29.60;99.90;;;;;;5081857;28;20194;-71
2022/06/11 11:21:52;;;;;;;9.75;2.47;;;29.70;99.90;;;;;;5102807;28;20210;-70
2022/06/11 11:24:30;;;;;;;8.10;3.00;;;29.70;99.90;;;;;;5076557;28;20249;-70
2022/06/11 11:27:17;;;;;;;8.40;2.20;;;29.70;99.90;;;;;;5072989;28;20221;-70
2022/06/11 11:30:10;;;;;;;7.93;2.33;;;30.00;99.90;;;;;;5068119;28;20269;-71
2022/06/11 11:32:38;;;;;;;7.88;2.25;;;29.90;99.90;;;;;;5061823;28;20546;-71
2022/06/11 11:35:27;;;;;;;5.38;2.00;;;30.00;99.90;;;;;;5072184;28;20959;-73
2022/06/11 11:38:12;;;;;;;8.25;2.42;;;30.00;99.90;;;;;;5093536;28;20186;-72
2022/06/11 11:41:02;;;;;;;7.82;2.30;;;30.10;99.90;;;;;;5080655;28;20190;-71
2022/06/11 11:43:42;;;;;;;6.63;2.40;;;30.30;99.90;;;;;;5079056;28;20279;-72
2022/06/11 11:46:35;;;;;;;4.88;1.95;;;30.30;99.90;;;;;;5080331;28;20201;-72
2022/06/11 11:49:05;;;;;;;7.63;1.90;;;30.50;99.90;;;;;;5087742;28;20188;-71
2022/06/11 11:51:32;;;;;;;4.18;1.77;;;30.60;95.40;;;;;;5089404;28;20755;-72
2022/06/11 11:54:19;;;;;;;6.22;1.77;;;30.60;96.00;;;;;;5089551;28;20182;-72
2022/06/11 11:57:15;;;;;;;12.98;2.03;;;30.60;94.80;;;;;;5089223;28;20190;-71
2022/06/11 11:59:58;;;;;;;5.63;1.70;;;30.50;94.20;;;;;;5098371;28;20216;-71
2022/06/11 12:02:37;;;;;;;4.38;1.52;;;30.50;93.60;;;;;;5087808;28;20235;-74
2022/06/11 12:05:30;;;;;;;4.38;1.50;;;30.50;93.20;;;;;;5088170;28;20870;-71
2022/06/11 12:07:59;;;;;;;5.97;1.90;;;30.50;93.40;;;;;;5051244;28;20661;-71
2022/06/11 12:10:45;;;;;;;4.25;1.70;;;30.40;91.90;;;;;;5087772;28;20775;-72
2022/06/11 12:13:46;;;;;;;6.07;1.67;;;30.30;92.90;;;;;;5071006;28;20209;-71
2022/06/11 12:16:39;;;;;;;4.13;1.70;;;30.30;92.40;;;;;;5064325;28;20230;-71
2022/06/11 12:19:30;;;;;;;3.13;1.52;;;30.40;91.90;;;;;;5064984;28;20632;-71
2022/06/11 12:22:34;;;;;;;4.40;1.52;;;30.30;92.60;;;;;;5085124;28;20204;-70
2022/06/11 12:25:03;;;;;;;8.55;1.83;;;30.40;91.60;;;;;;5031337;28;20241;-71
2022/06/11 12:27:40;;;;;;;4.40;1.67;;;30.50;92.00;;;;;;5071481;28;20198;-72
2022/06/11 12:30:21;;;;;;;7.75;2.10;;;30.60;91.60;;;;;;5068545;28;20220;-72
2022/06/11 12:32:48;;;;;;;6.50;2.10;;;30.50;91.70;;;;;;5093411;28;20194;-73
2022/06/11 12:35:23;;;;;;;5.53;1.90;;;30.50;91.70;;;;;;5066531;28;20677;-73
2022/06/11 12:38:04;;;;;;;5.97;1.90;;;30.50;91.50;;;;;;5084806;28;20892;-72
2022/06/11 12:41:11;;;;;;;6.28;1.60;;;30.60;92.30;;;;;;5051134;28;20192;-71
2022/06/11 12:44:11;;;;;;;6.93;1.98;;;30.50;91.20;;;;;;5064545;28;20185;-72
2022/06/11 12:47:16;;;;;;;4.18;2.05;;;30.50;91.30;;;;;;5094182;28;20212;-72
2022/06/11 12:50:00;;;;;;;3.67;1.50;;;30.40;91.60;;;;;;5074113;28;20181;-73
2022/06/11 12:53:09;;;;;;;3.10;1.55;;;30.30;91.70;;;;;;5086566;28;20678;-74
2022/06/11 12:56:04;;;;;;;7.25;1.98;;;30.30;90.40;;;;;;5071983;28;20183;-73
2022/06/11 12:58:48;;;;;;;4.22;1.60;;;30.30;90.60;;;;;;5088733;28;20919;-72
2022/06/11 13:01:47;;;;;;;2.60;1.42;;;30.40;89.70;;;;;;5084976;28;20194;-74
2022/06/11 13:04:44;;;;;;;3.38;1.50;;;30.50;88.90;;;;;;5043632;28;20190;-73
2022/06/11 13:07:49;;;;;;;5.22;1.75;;;30.40;89.70;;;;;;5082750;28;20210;-74
2022/06/11 13:10:39;;;;;;;3.85;1.63;;;30.30;89.40;;;;;;5084689;28;20243;-74
2022/06/11 13:13:30;;;;;;;4.25;2.00;;;30.40;90.10;;;;;;5080243;28;20674;-72
2022/06/11 13:16:27;;;;;;;8.05;2.40;;;30.50;98.10;;;;;;5093880;28;20594;-73
2022/06/11 13:19:46;;;;;;;3.47;1.80;;;30.30;99.90;;;;;;5075448;28;20185;-72
2022/06/11 13:22:34;;;;;;;7.35;2.20;;;30.30;99.90;;;;;;5064069;28;20194;-73
2022/06/11 13:25:44;;;;;;;6.07;1.83;;;30.10;97.60;;;;;;5067835;28;20266;-74
2022/06/11 13:28:49;;;;;;;13.27;2.22;;;30.10;92.10;;;;;;5078795;28;20229;-72
2022/06/11 13:31:44;;;;;;;9.05;2.78;;;30.30;99.90;;;;;;5059580;28;20193;-73
2022/06/11 13:34:35;;;;;;;7.13;2.55;;;30.30;99.90;;;;;;5101289;28;20190;-71
2022/06/11 13:37:33;;;;;;;6.88;2.17;;;30.10;99.90;;;;;;5069090;28;20272;-70
2022/06/11 13:40:50;;;;;;;7.45;2.30;;;29.90;99.90;;;;;;5063845;28;20523;-72
2022/06/11 13:43:44;;;;;;;5.38;2.40;;;30.00;99.90;;;;;;5082354;28;20179;-71